sensor_id;sensor_type;location;lat;lon;timestamp;temperature;humidity
13346;DHT22;6742;48.036;15.780;2023-08-12T00:00:23;15.40;99.90
13346;DHT22;6742;48.036;15.780;2023-08-12T00:02:50;15.30;99.90
13346;DHT22;6742;48.036;15.780;2023-08-12T00:05:19;15.30;99.90
13346;DHT22;6742;48.036;15.780;2023-08-12T00:07:46;15.30;99.90
13346;DHT22;6742;48.036;15.780;2023-08-12T00:10:13;15.30;99.90
13346;DHT22;6742;48.036;15.780;2023-08-12T00:12:40;15.20;99.90
13346;DHT22;6742;48.036;15.780;2023-08-12T00:15:09;15.20;99.90
13346;DHT22;6742;48.036;15.780;2023-08-12T00:17:36;15.20;99.90
13346;DHT22;6742;48.036;15.780;2023-08-12T00:20:04;15.20;99.90
13346;DHT22;6742;48.036;15.780;2023-08-12T00:22:34;15.20;99.90
13346;DHT22;6742;48.036;15.780;2023-08-12T00:25:01;15.10;99.90
13346;DHT22;6742;48.036;15.780;2023-08-12T00:27:28;15.10;99.90
13346;DHT22;6742;48.036;15.780;2023-08-12T00:29:55;15.10;99.90
13346;DHT22;6742;48.036;15.780;2023-08-12T00:32:22;15.10;99.90
13346;DHT22;6742;48.036;15.780;2023-08-12T00:34:49;15.10;99.90
13346;DHT22;6742;48.036;15.780;2023-08-12T00:37:16;15.10;99.90
13346;DHT22;6742;48.036;15.780;2023-08-12T00:39:44;15.00;99.90
13346;DHT22;6742;48.036;15.780;2023-08-12T00:42:11;14.90;99.90
13346;DHT22;6742;48.036;15.780;2023-08-12T00:44:38;15.00;99.90
13346;DHT22;6742;48.036;15.780;2023-08-12T00:47:05;14.90;99.90
13346;DHT22;6742;48.036;15.780;2023-08-12T00:49:32;14.90;99.90
13346;DHT22;6742;48.036;15.780;2023-08-12T00:52:00;14.80;99.90
13346;DHT22;6742;48.036;15.780;2023-08-12T00:54:28;14.80;99.90
13346;DHT22;6742;48.036;15.780;2023-08-12T00:56:56;14.80;99.90
13346;DHT22;6742;48.036;15.780;2023-08-12T00:59:24;14.80;99.90
13346;DHT22;6742;48.036;15.780;2023-08-12T01:01:51;14.70;99.90
13346;DHT22;6742;48.036;15.780;2023-08-12T01:04:18;14.70;99.90
13346;DHT22;6742;48.036;15.780;2023-08-12T01:06:45;14.70;99.90
13346;DHT22;6742;48.036;15.780;2023-08-12T01:09:12;14.70;99.90
13346;DHT22;6742;48.036;15.780;2023-08-12T01:11:46;14.70;99.90
13346;DHT22;6742;48.036;15.780;2023-08-12T01:14:22;14.70;99.90
13346;DHT22;6742;48.036;15.780;2023-08-12T01:16:54;14.70;99.90
13346;DHT22;6742;48.036;15.780;2023-08-12T01:19:30;14.70;99.90
13346;DHT22;6742;48.036;15.780;2023-08-12T01:22:00;14.60;99.90
13346;DHT22;6742;48.036;15.780;2023-08-12T01:24:34;14.60;99.90
13346;DHT22;6742;48.036;15.780;2023-08-12T01:27:02;14.60;99.90
13346;DHT22;6742;48.036;15.780;2023-08-12T01:29:28;14.60;99.90
13346;DHT22;6742;48.036;15.780;2023-08-12T01:32:00;14.50;99.90
13346;DHT22;6742;48.036;15.780;2023-08-12T01:34:37;14.50;99.90
13346;DHT22;6742;48.036;15.780;2023-08-12T01:37:09;14.50;99.90
13346;DHT22;6742;48.036;15.780;2023-08-12T01:39:40;14.50;99.90
13346;DHT22;6742;48.036;15.780;2023-08-12T01:42:09;14.50;99.90
13346;DHT22;6742;48.036;15.780;2023-08-12T01:44:37;14.40;99.90
13346;DHT22;6742;48.036;15.780;2023-08-12T01:47:04;14.40;99.90
13346;DHT22;6742;48.036;15.780;2023-08-12T01:49:31;14.40;99.90
13346;DHT22;6742;48.036;15.780;2023-08-12T01:51:58;14.40;99.90
13346;DHT22;6742;48.036;15.780;2023-08-12T01:54:25;14.40;99.90
13346;DHT22;6742;48.036;15.780;2023-08-12T01:56:53;14.40;99.90
13346;DHT22;6742;48.036;15.780;2023-08-12T01:59:20;14.40;99.90
13346;DHT22;6742;48.036;15.780;2023-08-12T02:01:47;14.40;99.90
13346;DHT22;6742;48.036;15.780;2023-08-12T02:04:14;14.40;99.90
13346;DHT22;6742;48.036;15.780;2023-08-12T02:06:41;14.30;99.90
13346;DHT22;6742;48.036;15.780;2023-08-12T02:09:08;14.30;99.90
13346;DHT22;6742;48.036;15.780;2023-08-12T02:11:35;14.30;99.90
13346;DHT22;6742;48.036;15.780;2023-08-12T02:14:03;14.20;99.90
13346;DHT22;6742;48.036;15.780;2023-08-12T02:16:30;14.20;99.90
13346;DHT22;6742;48.036;15.780;2023-08-12T02:18:57;14.20;99.90
13346;DHT22;6742;48.036;15.780;2023-08-12T02:21:24;14.10;99.90
13346;DHT22;6742;48.036;15.780;2023-08-12T02:23:51;14.10;99.90
13346;DHT22;6742;48.036;15.780;2023-08-12T02:26:18;14.10;99.90
13346;DHT22;6742;48.036;15.780;2023-08-12T02:28:45;14.00;99.90
13346;DHT22;6742;48.036;15.780;2023-08-12T02:31:14;14.00;99.90
13346;DHT22;6742;48.036;15.780;2023-08-12T02:33:41;14.00;99.90
13346;DHT22;6742;48.036;15.780;2023-08-12T02:36:09;14.00;99.90
13346;DHT22;6742;48.036;15.780;2023-08-12T02:38:36;14.00;99.90
13346;DHT22;6742;48.036;15.780;2023-08-12T02:41:02;14.00;99.90
13346;DHT22;6742;48.036;15.780;2023-08-12T02:43:29;13.90;99.90
13346;DHT22;6742;48.036;15.780;2023-08-12T02:45:56;13.90;99.90
13346;DHT22;6742;48.036;15.780;2023-08-12T02:48:25;13.90;99.90
13346;DHT22;6742;48.036;15.780;2023-08-12T02:50:51;13.90;99.90
13346;DHT22;6742;48.036;15.780;2023-08-12T02:53:18;13.90;99.90
13346;DHT22;6742;48.036;15.780;2023-08-12T02:55:45;13.90;99.90
13346;DHT22;6742;48.036;15.780;2023-08-12T02:58:12;13.90;99.90
13346;DHT22;6742;48.036;15.780;2023-08-12T03:00:41;13.90;99.90
13346;DHT22;6742;48.036;15.780;2023-08-12T03:03:09;13.90;99.90
13346;DHT22;6742;48.036;15.780;2023-08-12T03:05:37;13.80;99.90
13346;DHT22;6742;48.036;15.780;2023-08-12T03:08:05;13.80;99.90
13346;DHT22;6742;48.036;15.780;2023-08-12T03:10:33;13.80;99.90
13346;DHT22;6742;48.036;15.780;2023-08-12T03:13:00;13.90;99.90
13346;DHT22;6742;48.036;15.780;2023-08-12T03:15:27;13.80;99.90
13346;DHT22;6742;48.036;15.780;2023-08-12T03:17:55;13.80;99.90
13346;DHT22;6742;48.036;15.780;2023-08-12T03:20:22;13.70;99.90
13346;DHT22;6742;48.036;15.780;2023-08-12T03:22:50;13.70;99.90
13346;DHT22;6742;48.036;15.780;2023-08-12T03:25:17;13.70;99.90
13346;DHT22;6742;48.036;15.780;2023-08-12T03:27:45;13.70;99.90
13346;DHT22;6742;48.036;15.780;2023-08-12T03:30:12;13.70;99.90
13346;DHT22;6742;48.036;15.780;2023-08-12T03:32:39;13.70;99.90
13346;DHT22;6742;48.036;15.780;2023-08-12T03:35:06;13.60;99.90
13346;DHT22;6742;48.036;15.780;2023-08-12T03:37:33;13.60;99.90
13346;DHT22;6742;48.036;15.780;2023-08-12T03:40:02;13.60;99.90
13346;DHT22;6742;48.036;15.780;2023-08-12T03:42:29;13.60;99.90
13346;DHT22;6742;48.036;15.780;2023-08-12T03:44:56;13.50;99.90
13346;DHT22;6742;48.036;15.780;2023-08-12T03:47:23;13.50;99.90
13346;DHT22;6742;48.036;15.780;2023-08-12T03:49:50;13.50;99.90
13346;DHT22;6742;48.036;15.780;2023-08-12T03:52:17;13.50;99.90
13346;DHT22;6742;48.036;15.780;2023-08-12T03:54:44;13.50;99.90
13346;DHT22;6742;48.036;15.780;2023-08-12T03:57:12;13.50;99.90
13346;DHT22;6742;48.036;15.780;2023-08-12T03:59:39;13.50;99.90
13346;DHT22;6742;48.036;15.780;2023-08-12T04:02:06;13.50;99.90
13346;DHT22;6742;48.036;15.780;2023-08-12T04:04:33;13.50;99.90
13346;DHT22;6742;48.036;15.780;2023-08-12T04:07:00;13.50;99.90
13346;DHT22;6742;48.036;15.780;2023-08-12T04:09:27;13.40;99.90
13346;DHT22;6742;48.036;15.780;2023-08-12T04:11:54;13.50;99.90
13346;DHT22;6742;48.036;15.780;2023-08-12T04:14:23;13.40;99.90
13346;DHT22;6742;48.036;15.780;2023-08-12T04:16:51;13.40;99.90
13346;DHT22;6742;48.036;15.780;2023-08-12T04:19:18;13.40;99.90
13346;DHT22;6742;48.036;15.780;2023-08-12T04:21:44;13.40;99.90
13346;DHT22;6742;48.036;15.780;2023-08-12T04:24:12;13.40;99.90
13346;DHT22;6742;48.036;15.780;2023-08-12T04:26:39;13.50;99.90
13346;DHT22;6742;48.036;15.780;2023-08-12T04:29:06;13.50;99.90
13346;DHT22;6742;48.036;15.780;2023-08-12T04:31:34;13.40;99.90
13346;DHT22;6742;48.036;15.780;2023-08-12T04:34:02;13.50;99.90
13346;DHT22;6742;48.036;15.780;2023-08-12T04:36:29;13.40;99.90
13346;DHT22;6742;48.036;15.780;2023-08-12T04:38:56;13.50;99.90
13346;DHT22;6742;48.036;15.780;2023-08-12T04:41:23;13.40;99.90
13346;DHT22;6742;48.036;15.780;2023-08-12T04:43:50;13.40;99.90
13346;DHT22;6742;48.036;15.780;2023-08-12T04:46:17;13.40;99.90
13346;DHT22;6742;48.036;15.780;2023-08-12T04:48:46;13.40;99.90
13346;DHT22;6742;48.036;15.780;2023-08-12T04:51:12;13.50;99.90
13346;DHT22;6742;48.036;15.780;2023-08-12T04:53:40;13.50;99.90
13346;DHT22;6742;48.036;15.780;2023-08-12T04:56:07;13.50;99.90
13346;DHT22;6742;48.036;15.780;2023-08-12T04:58:34;13.60;99.90
13346;DHT22;6742;48.036;15.780;2023-08-12T05:01:01;13.50;99.90
13346;DHT22;6742;48.036;15.780;2023-08-12T05:03:28;13.70;99.90
13346;DHT22;6742;48.036;15.780;2023-08-12T05:05:56;13.70;99.90
13346;DHT22;6742;48.036;15.780;2023-08-12T05:08:23;13.80;99.90
13346;DHT22;6742;48.036;15.780;2023-08-12T05:10:50;13.80;99.90
13346;DHT22;6742;48.036;15.780;2023-08-12T05:13:17;13.90;99.90
13346;DHT22;6742;48.036;15.780;2023-08-12T05:15:45;14.00;99.90
13346;DHT22;6742;48.036;15.780;2023-08-12T05:18:13;14.10;99.90
13346;DHT22;6742;48.036;15.780;2023-08-12T05:20:40;14.50;99.90
13346;DHT22;6742;48.036;15.780;2023-08-12T05:23:09;14.70;99.90
13346;DHT22;6742;48.036;15.780;2023-08-12T05:25:36;15.00;99.90
13346;DHT22;6742;48.036;15.780;2023-08-12T05:28:03;15.30;99.90
13346;DHT22;6742;48.036;15.780;2023-08-12T05:30:30;15.70;99.90
13346;DHT22;6742;48.036;15.780;2023-08-12T05:32:57;17.60;99.90
13346;DHT22;6742;48.036;15.780;2023-08-12T05:35:24;19.50;99.90
13346;DHT22;6742;48.036;15.780;2023-08-12T05:37:51;20.90;99.90
13346;DHT22;6742;48.036;15.780;2023-08-12T05:40:20;21.80;99.90
13346;DHT22;6742;48.036;15.780;2023-08-12T05:42:47;22.50;99.90
13346;DHT22;6742;48.036;15.780;2023-08-12T05:45:14;22.80;99.90
13346;DHT22;6742;48.036;15.780;2023-08-12T05:47:40;23.00;99.90
13346;DHT22;6742;48.036;15.780;2023-08-12T05:50:08;23.10;99.90
13346;DHT22;6742;48.036;15.780;2023-08-12T05:52:35;23.10;99.90
13346;DHT22;6742;48.036;15.780;2023-08-12T05:55:02;23.10;99.90
13346;DHT22;6742;48.036;15.780;2023-08-12T05:57:31;23.10;99.90
13346;DHT22;6742;48.036;15.780;2023-08-12T05:59:57;23.10;99.90
13346;DHT22;6742;48.036;15.780;2023-08-12T06:02:25;23.10;99.90
13346;DHT22;6742;48.036;15.780;2023-08-12T06:04:52;23.10;99.90
13346;DHT22;6742;48.036;15.780;2023-08-12T06:07:19;22.80;99.90
13346;DHT22;6742;48.036;15.780;2023-08-12T06:09:46;22.60;99.90
13346;DHT22;6742;48.036;15.780;2023-08-12T06:12:13;22.70;99.90
13346;DHT22;6742;48.036;15.780;2023-08-12T06:14:41;22.50;99.90
13346;DHT22;6742;48.036;15.780;2023-08-12T06:17:08;22.50;99.90
13346;DHT22;6742;48.036;15.780;2023-08-12T06:19:35;22.50;99.90
13346;DHT22;6742;48.036;15.780;2023-08-12T06:22:02;22.50;99.90
13346;DHT22;6742;48.036;15.780;2023-08-12T06:24:29;22.50;99.90
13346;DHT22;6742;48.036;15.780;2023-08-12T06:26:56;22.60;99.90
13346;DHT22;6742;48.036;15.780;2023-08-12T06:29:23;22.70;99.90
13346;DHT22;6742;48.036;15.780;2023-08-12T06:31:52;22.80;99.90
13346;DHT22;6742;48.036;15.780;2023-08-12T06:34:19;22.80;99.90
13346;DHT22;6742;48.036;15.780;2023-08-12T06:36:46;22.80;99.90
13346;DHT22;6742;48.036;15.780;2023-08-12T06:39:13;22.90;99.90
13346;DHT22;6742;48.036;15.780;2023-08-12T06:41:40;22.80;99.90
13346;DHT22;6742;48.036;15.780;2023-08-12T06:44:07;22.90;99.90
13346;DHT22;6742;48.036;15.780;2023-08-12T06:46:34;23.00;99.90
13346;DHT22;6742;48.036;15.780;2023-08-12T06:49:02;23.10;99.90
13346;DHT22;6742;48.036;15.780;2023-08-12T06:51:29;23.30;99.90
13346;DHT22;6742;48.036;15.780;2023-08-12T06:53:56;23.40;99.90
13346;DHT22;6742;48.036;15.780;2023-08-12T06:56:23;23.60;99.90
13346;DHT22;6742;48.036;15.780;2023-08-12T06:58:50;23.70;99.90
13346;DHT22;6742;48.036;15.780;2023-08-12T07:01:16;23.90;99.90
13346;DHT22;6742;48.036;15.780;2023-08-12T07:03:43;24.00;99.90
13346;DHT22;6742;48.036;15.780;2023-08-12T07:06:12;24.20;99.90
13346;DHT22;6742;48.036;15.780;2023-08-12T07:08:39;24.50;99.90
13346;DHT22;6742;48.036;15.780;2023-08-12T07:11:06;24.70;99.90
13346;DHT22;6742;48.036;15.780;2023-08-12T07:13:32;24.80;99.90
13346;DHT22;6742;48.036;15.780;2023-08-12T07:16:00;24.90;99.90
13346;DHT22;6742;48.036;15.780;2023-08-12T07:18:27;25.00;99.90
13346;DHT22;6742;48.036;15.780;2023-08-12T07:20:55;25.20;99.90
13346;DHT22;6742;48.036;15.780;2023-08-12T07:23:25;25.40;99.90
13346;DHT22;6742;48.036;15.780;2023-08-12T07:25:52;25.60;99.90
13346;DHT22;6742;48.036;15.780;2023-08-12T07:28:19;25.80;99.90
13346;DHT22;6742;48.036;15.780;2023-08-12T07:30:45;26.00;99.90
13346;DHT22;6742;48.036;15.780;2023-08-12T07:33:12;26.20;99.90
13346;DHT22;6742;48.036;15.780;2023-08-12T07:35:39;26.30;99.90
13346;DHT22;6742;48.036;15.780;2023-08-12T07:38:06;26.40;99.90
13346;DHT22;6742;48.036;15.780;2023-08-12T07:40:35;26.60;99.60
13346;DHT22;6742;48.036;15.780;2023-08-12T07:43:01;26.80;99.90
13346;DHT22;6742;48.036;15.780;2023-08-12T07:45:29;27.00;99.80
13346;DHT22;6742;48.036;15.780;2023-08-12T07:47:56;27.10;99.60
13346;DHT22;6742;48.036;15.780;2023-08-12T07:50:23;27.30;99.90
13346;DHT22;6742;48.036;15.780;2023-08-12T07:52:50;27.50;99.90
13346;DHT22;6742;48.036;15.780;2023-08-12T07:55:18;27.70;98.90
13346;DHT22;6742;48.036;15.780;2023-08-12T07:57:46;27.90;98.50
13346;DHT22;6742;48.036;15.780;2023-08-12T08:00:13;28.10;98.80
13346;DHT22;6742;48.036;15.780;2023-08-12T08:02:40;28.50;97.50
13346;DHT22;6742;48.036;15.780;2023-08-12T08:05:07;28.80;96.00
13346;DHT22;6742;48.036;15.780;2023-08-12T08:07:34;29.20;95.90
13346;DHT22;6742;48.036;15.780;2023-08-12T08:10:01;29.40;94.40
13346;DHT22;6742;48.036;15.780;2023-08-12T08:12:28;29.60;92.80
13346;DHT22;6742;48.036;15.780;2023-08-12T08:14:57;29.80;92.90
13346;DHT22;6742;48.036;15.780;2023-08-12T08:17:24;30.00;92.70
13346;DHT22;6742;48.036;15.780;2023-08-12T08:19:51;30.30;92.40
13346;DHT22;6742;48.036;15.780;2023-08-12T08:22:17;30.40;91.60
13346;DHT22;6742;48.036;15.780;2023-08-12T08:24:44;30.50;92.40
13346;DHT22;6742;48.036;15.780;2023-08-12T08:27:11;30.50;92.20
13346;DHT22;6742;48.036;15.780;2023-08-12T08:29:38;30.60;91.60
13346;DHT22;6742;48.036;15.780;2023-08-12T08:32:07;30.80;92.20
13346;DHT22;6742;48.036;15.780;2023-08-12T08:34:34;31.00;91.90
13346;DHT22;6742;48.036;15.780;2023-08-12T08:37:01;31.00;90.80
13346;DHT22;6742;48.036;15.780;2023-08-12T08:39:28;31.10;91.60
13346;DHT22;6742;48.036;15.780;2023-08-12T08:41:55;31.40;91.80
13346;DHT22;6742;48.036;15.780;2023-08-12T08:44:23;31.60;90.80
13346;DHT22;6742;48.036;15.780;2023-08-12T08:46:52;31.80;90.10
13346;DHT22;6742;48.036;15.780;2023-08-12T08:49:21;31.80;88.10
13346;DHT22;6742;48.036;15.780;2023-08-12T08:51:49;31.70;88.30
13346;DHT22;6742;48.036;15.780;2023-08-12T08:54:17;31.80;88.90
13346;DHT22;6742;48.036;15.780;2023-08-12T08:56:45;31.80;90.00
13346;DHT22;6742;48.036;15.780;2023-08-12T08:59:14;31.90;88.80
13346;DHT22;6742;48.036;15.780;2023-08-12T09:01:42;32.10;87.60
13346;DHT22;6742;48.036;15.780;2023-08-12T09:04:11;32.00;83.80
13346;DHT22;6742;48.036;15.780;2023-08-12T09:06:40;31.90;86.60
13346;DHT22;6742;48.036;15.780;2023-08-12T09:09:10;31.90;84.40
13346;DHT22;6742;48.036;15.780;2023-08-12T09:11:39;31.90;85.80
13346;DHT22;6742;48.036;15.780;2023-08-12T09:14:07;31.90;85.80
13346;DHT22;6742;48.036;15.780;2023-08-12T09:16:34;32.00;87.50
13346;DHT22;6742;48.036;15.780;2023-08-12T09:19:01;32.30;89.40
13346;DHT22;6742;48.036;15.780;2023-08-12T09:21:28;32.30;84.30
13346;DHT22;6742;48.036;15.780;2023-08-12T09:23:56;32.20;86.20
13346;DHT22;6742;48.036;15.780;2023-08-12T09:26:23;32.30;84.20
13346;DHT22;6742;48.036;15.780;2023-08-12T09:28:50;32.40;86.90
13346;DHT22;6742;48.036;15.780;2023-08-12T09:31:24;32.30;85.40
13346;DHT22;6742;48.036;15.780;2023-08-12T09:33:52;32.50;84.80
13346;DHT22;6742;48.036;15.780;2023-08-12T09:36:21;32.70;84.80
13346;DHT22;6742;48.036;15.780;2023-08-12T09:38:48;32.90;87.60
13346;DHT22;6742;48.036;15.780;2023-08-12T09:41:17;32.80;87.70
13346;DHT22;6742;48.036;15.780;2023-08-12T09:43:44;32.70;86.80
13346;DHT22;6742;48.036;15.780;2023-08-12T09:46:12;32.50;82.10
13346;DHT22;6742;48.036;15.780;2023-08-12T09:48:40;32.30;83.20
13346;DHT22;6742;48.036;15.780;2023-08-12T09:51:07;32.40;83.90
13346;DHT22;6742;48.036;15.780;2023-08-12T09:53:39;32.60;85.90
13346;DHT22;6742;48.036;15.780;2023-08-12T09:56:08;32.60;83.60
13346;DHT22;6742;48.036;15.780;2023-08-12T09:58:39;32.50;86.90
13346;DHT22;6742;48.036;15.780;2023-08-12T10:01:10;32.60;87.00
13346;DHT22;6742;48.036;15.780;2023-08-12T10:03:40;32.50;86.00
13346;DHT22;6742;48.036;15.780;2023-08-12T10:06:07;32.40;81.60
13346;DHT22;6742;48.036;15.780;2023-08-12T10:08:35;32.20;88.40
13346;DHT22;6742;48.036;15.780;2023-08-12T10:11:02;32.30;88.60
13346;DHT22;6742;48.036;15.780;2023-08-12T10:13:30;32.40;83.50
13346;DHT22;6742;48.036;15.780;2023-08-12T10:15:58;32.40;89.30
13346;DHT22;6742;48.036;15.780;2023-08-12T10:18:28;32.60;85.10
13346;DHT22;6742;48.036;15.780;2023-08-12T10:20:57;32.30;88.50
13346;DHT22;6742;48.036;15.780;2023-08-12T10:23:25;32.40;85.80
13346;DHT22;6742;48.036;15.780;2023-08-12T10:25:54;32.20;83.90
13346;DHT22;6742;48.036;15.780;2023-08-12T10:28:22;32.10;85.00
13346;DHT22;6742;48.036;15.780;2023-08-12T10:30:49;32.00;85.40
13346;DHT22;6742;48.036;15.780;2023-08-12T10:33:18;32.00;89.60
13346;DHT22;6742;48.036;15.780;2023-08-12T10:35:46;31.90;87.70
13346;DHT22;6742;48.036;15.780;2023-08-12T10:38:16;31.80;87.20
13346;DHT22;6742;48.036;15.780;2023-08-12T10:40:43;31.70;90.50
13346;DHT22;6742;48.036;15.780;2023-08-12T10:43:11;31.80;87.10
13346;DHT22;6742;48.036;15.780;2023-08-12T10:45:47;31.70;90.10
13346;DHT22;6742;48.036;15.780;2023-08-12T10:48:21;31.70;88.30
13346;DHT22;6742;48.036;15.780;2023-08-12T10:50:51;31.70;90.20
13346;DHT22;6742;48.036;15.780;2023-08-12T10:53:26;31.60;86.30
13346;DHT22;6742;48.036;15.780;2023-08-12T10:55:58;31.50;88.30
13346;DHT22;6742;48.036;15.780;2023-08-12T10:58:27;31.50;87.10
13346;DHT22;6742;48.036;15.780;2023-08-12T11:00:55;31.50;90.30
13346;DHT22;6742;48.036;15.780;2023-08-12T11:03:23;31.50;87.60
13346;DHT22;6742;48.036;15.780;2023-08-12T11:05:50;31.60;89.80
13346;DHT22;6742;48.036;15.780;2023-08-12T11:08:25;31.80;87.40
13346;DHT22;6742;48.036;15.780;2023-08-12T11:10:55;31.90;90.00
13346;DHT22;6742;48.036;15.780;2023-08-12T11:13:22;31.90;86.80
13346;DHT22;6742;48.036;15.780;2023-08-12T11:15:50;31.90;90.90
13346;DHT22;6742;48.036;15.780;2023-08-12T11:18:18;31.80;87.10
13346;DHT22;6742;48.036;15.780;2023-08-12T11:20:48;31.70;89.20
13346;DHT22;6742;48.036;15.780;2023-08-12T11:23:16;31.60;87.20
13346;DHT22;6742;48.036;15.780;2023-08-12T11:25:43;31.50;89.70
13346;DHT22;6742;48.036;15.780;2023-08-12T11:28:11;31.60;91.50
13346;DHT22;6742;48.036;15.780;2023-08-12T11:30:41;31.60;89.70
13346;DHT22;6742;48.036;15.780;2023-08-12T11:33:09;31.30;92.20
13346;DHT22;6742;48.036;15.780;2023-08-12T11:35:37;31.30;89.50
13346;DHT22;6742;48.036;15.780;2023-08-12T11:38:06;31.20;90.20
13346;DHT22;6742;48.036;15.780;2023-08-12T11:40:34;31.00;91.00
13346;DHT22;6742;48.036;15.780;2023-08-12T11:43:02;30.90;91.30
13346;DHT22;6742;48.036;15.780;2023-08-12T11:45:29;31.00;92.70
13346;DHT22;6742;48.036;15.780;2023-08-12T11:47:56;31.10;90.60
13346;DHT22;6742;48.036;15.780;2023-08-12T11:50:25;31.10;90.80
13346;DHT22;6742;48.036;15.780;2023-08-12T11:52:55;30.80;91.60
13346;DHT22;6742;48.036;15.780;2023-08-12T11:55:24;30.70;92.40
13346;DHT22;6742;48.036;15.780;2023-08-12T11:57:52;30.80;92.30
13346;DHT22;6742;48.036;15.780;2023-08-12T12:00:21;30.80;91.10
13346;DHT22;6742;48.036;15.780;2023-08-12T12:02:53;30.70;91.60
13346;DHT22;6742;48.036;15.780;2023-08-12T12:05:22;30.70;92.50
13346;DHT22;6742;48.036;15.780;2023-08-12T12:07:50;30.70;93.10
13346;DHT22;6742;48.036;15.780;2023-08-12T12:10:18;30.70;92.90
13346;DHT22;6742;48.036;15.780;2023-08-12T12:12:47;30.70;93.30
13346;DHT22;6742;48.036;15.780;2023-08-12T12:15:14;30.70;94.10
13346;DHT22;6742;48.036;15.780;2023-08-12T12:17:41;30.70;92.00
13346;DHT22;6742;48.036;15.780;2023-08-12T12:20:09;30.60;92.20
13346;DHT22;6742;48.036;15.780;2023-08-12T12:22:37;30.70;94.00
13346;DHT22;6742;48.036;15.780;2023-08-12T12:25:09;30.70;93.20
13346;DHT22;6742;48.036;15.780;2023-08-12T12:27:37;30.70;91.90
13346;DHT22;6742;48.036;15.780;2023-08-12T12:30:08;30.80;93.10
13346;DHT22;6742;48.036;15.780;2023-08-12T12:32:35;30.70;91.60
13346;DHT22;6742;48.036;15.780;2023-08-12T12:35:02;30.70;93.50
13346;DHT22;6742;48.036;15.780;2023-08-12T12:37:30;30.70;90.90
13346;DHT22;6742;48.036;15.780;2023-08-12T12:39:57;30.70;91.70
13346;DHT22;6742;48.036;15.780;2023-08-12T12:42:24;30.50;90.70
13346;DHT22;6742;48.036;15.780;2023-08-12T12:44:51;30.30;92.50
13346;DHT22;6742;48.036;15.780;2023-08-12T12:47:19;30.30;90.50
13346;DHT22;6742;48.036;15.780;2023-08-12T12:49:46;30.30;91.20
13346;DHT22;6742;48.036;15.780;2023-08-12T12:52:13;30.20;91.10
13346;DHT22;6742;48.036;15.780;2023-08-12T12:54:40;30.20;91.50
13346;DHT22;6742;48.036;15.780;2023-08-12T12:57:07;30.10;91.80
13346;DHT22;6742;48.036;15.780;2023-08-12T12:59:34;30.00;91.90
13346;DHT22;6742;48.036;15.780;2023-08-12T13:02:01;30.00;90.70
13346;DHT22;6742;48.036;15.780;2023-08-12T13:04:30;29.80;91.00
13346;DHT22;6742;48.036;15.780;2023-08-12T13:06:57;29.80;91.90
13346;DHT22;6742;48.036;15.780;2023-08-12T13:09:24;29.80;92.10
13346;DHT22;6742;48.036;15.780;2023-08-12T13:11:51;29.80;92.40
13346;DHT22;6742;48.036;15.780;2023-08-12T13:14:18;29.80;91.60
13346;DHT22;6742;48.036;15.780;2023-08-12T13:16:46;29.80;92.70
13346;DHT22;6742;48.036;15.780;2023-08-12T13:19:13;29.80;91.00
13346;DHT22;6742;48.036;15.780;2023-08-12T13:21:41;29.80;91.00
13346;DHT22;6742;48.036;15.780;2023-08-12T13:24:08;29.70;91.90
13346;DHT22;6742;48.036;15.780;2023-08-12T13:26:35;29.70;92.10
13346;DHT22;6742;48.036;15.780;2023-08-12T13:29:02;29.60;90.60
13346;DHT22;6742;48.036;15.780;2023-08-12T13:31:30;29.60;92.40
13346;DHT22;6742;48.036;15.780;2023-08-12T13:33:57;29.60;92.10
13346;DHT22;6742;48.036;15.780;2023-08-12T13:36:24;29.60;90.90
13346;DHT22;6742;48.036;15.780;2023-08-12T13:38:52;29.50;91.70
13346;DHT22;6742;48.036;15.780;2023-08-12T13:41:19;29.50;92.50
13346;DHT22;6742;48.036;15.780;2023-08-12T13:43:46;29.40;90.90
13346;DHT22;6742;48.036;15.780;2023-08-12T13:46:13;29.30;91.50
13346;DHT22;6742;48.036;15.780;2023-08-12T13:48:40;29.20;91.30
13346;DHT22;6742;48.036;15.780;2023-08-12T13:51:07;29.20;91.50
13346;DHT22;6742;48.036;15.780;2023-08-12T13:53:35;29.20;92.00
13346;DHT22;6742;48.036;15.780;2023-08-12T13:56:03;29.10;91.50
13346;DHT22;6742;48.036;15.780;2023-08-12T13:58:30;29.10;91.60
13346;DHT22;6742;48.036;15.780;2023-08-12T14:00:57;29.00;91.80
13346;DHT22;6742;48.036;15.780;2023-08-12T14:03:24;29.00;92.00
13346;DHT22;6742;48.036;15.780;2023-08-12T14:05:51;29.00;91.60
13346;DHT22;6742;48.036;15.780;2023-08-12T14:08:18;29.00;91.40
13346;DHT22;6742;48.036;15.780;2023-08-12T14:10:45;28.90;91.30
13346;DHT22;6742;48.036;15.780;2023-08-12T14:13:14;28.90;92.00
13346;DHT22;6742;48.036;15.780;2023-08-12T14:15:41;28.90;91.70
13346;DHT22;6742;48.036;15.780;2023-08-12T14:18:08;28.90;91.20
13346;DHT22;6742;48.036;15.780;2023-08-12T14:20:35;28.80;92.40
13346;DHT22;6742;48.036;15.780;2023-08-12T14:23:02;28.80;94.10
13346;DHT22;6742;48.036;15.780;2023-08-12T14:25:29;28.80;91.90
13346;DHT22;6742;48.036;15.780;2023-08-12T14:27:56;28.70;92.50
13346;DHT22;6742;48.036;15.780;2023-08-12T14:30:25;28.70;91.90
13346;DHT22;6742;48.036;15.780;2023-08-12T14:32:52;28.60;92.50
13346;DHT22;6742;48.036;15.780;2023-08-12T14:35:19;28.50;93.30
13346;DHT22;6742;48.036;15.780;2023-08-12T14:37:46;28.50;92.00
13346;DHT22;6742;48.036;15.780;2023-08-12T14:40:13;28.40;92.50
13346;DHT22;6742;48.036;15.780;2023-08-12T14:42:40;28.40;92.30
13346;DHT22;6742;48.036;15.780;2023-08-12T14:45:08;28.30;92.90
13346;DHT22;6742;48.036;15.780;2023-08-12T14:47:36;28.30;92.40
13346;DHT22;6742;48.036;15.780;2023-08-12T14:50:04;28.30;93.30
13346;DHT22;6742;48.036;15.780;2023-08-12T14:52:31;28.30;92.00
13346;DHT22;6742;48.036;15.780;2023-08-12T14:54:58;28.20;92.70
13346;DHT22;6742;48.036;15.780;2023-08-12T14:57:25;28.20;92.90
13346;DHT22;6742;48.036;15.780;2023-08-12T14:59:52;28.20;93.10
13346;DHT22;6742;48.036;15.780;2023-08-12T15:02:20;28.10;92.60
13346;DHT22;6742;48.036;15.780;2023-08-12T15:04:49;28.10;92.90
13346;DHT22;6742;48.036;15.780;2023-08-12T15:07:17;28.10;92.90
13346;DHT22;6742;48.036;15.780;2023-08-12T15:09:44;28.00;92.40
13346;DHT22;6742;48.036;15.780;2023-08-12T15:12:11;28.00;93.80
13346;DHT22;6742;48.036;15.780;2023-08-12T15:14:38;28.00;93.20
13346;DHT22;6742;48.036;15.780;2023-08-12T15:17:05;28.00;93.10
13346;DHT22;6742;48.036;15.780;2023-08-12T15:19:32;27.90;93.50
13346;DHT22;6742;48.036;15.780;2023-08-12T15:22:00;27.90;92.80
13346;DHT22;6742;48.036;15.780;2023-08-12T15:24:27;27.90;93.60
13346;DHT22;6742;48.036;15.780;2023-08-12T15:26:56;27.80;93.40
13346;DHT22;6742;48.036;15.780;2023-08-12T15:29:23;27.80;93.70
13346;DHT22;6742;48.036;15.780;2023-08-12T15:31:50;27.70;93.30